トロント/ピアソン の空港の天気 - METARとTAF

トロント・ピアソン国際空港 ( CYYZ / YYZ ) - カナダ オンタリオ州トロント
飛行場実況気象(Metar)
観測時間09/30 01:00 EDT (09/30 05:00 UTC)
風向・風速南南西 3m/s
視程10km以上
天気現象弱い雨
全天の4割程度の雲 雲底高度 1220m
全天を覆う雲 雲底高度 2290m
気温14℃
湿度82%
気圧1004.1hPa
METARCYYZ 300500Z 20006KT 15SM -RA SCT040 OVC075 14/11 A2965 RMK SC3AC5 SLP041 DENSITY ALT 900FT
過去の天気等 Google飛行場航空写真 Wunderground天気予報

過去48時間のMETAR

飛行場予報(TAF)
発表時間: 9/29 22:38 EDT (9/30 02:38 UTC)
予報対象時間: 29日23時 EDT ~ 1日2時 EDT
風向・風速南南西 4m/s
視程10km以上
全天の4割程度の雲 雲底高度 1520m
全天を覆う雲 雲底高度 3050m
30日0時 EDT から
風向・風速不定 2m/s
視程10km以上
全天の8割程度の雲 雲底高度 910m
全天を覆う雲 雲底高度 3660m
30日5時 EDT から
風向・風速南南西 4m/s
視程10km以上
全天の8割程度の雲 雲底高度 370m
30日11時 EDT から
風向・風速西南西 9m/s 瞬間風速 14m/s
視程10km以上
全天の8割程度の雲 雲底高度 760m
30日13時 EDT から
風向・風速西南西 9m/s 瞬間風速 14m/s
視程10km以上
天気現象弱いしゅう雨
全天の8割程度の雲 雲底高度 760m
30日18時 EDT ~ 30日20時 EDT に徐々に
風向・風速南西 5m/s
30日22時 EDT から
風向・風速南西 5m/s
視程10km以上
天気現象弱いしゅう雨
全天の8割程度の雲 雲底高度 460m
TAF CYYZ 300238Z 3003/0106 20007KT P6SM SCT050 OVC100
FM300400 VRB03KT P6SM BKN030 OVC120
FM300900 21008KT P6SM BKN012
FM301500 24018G28KT P6SM BKN025
FM301700 24018G28KT P6SM -SHRA BKN025
BECMG 3022/3024 23010KT
FM010200 23010KT P6SM -SHRA BKN015 RMK NXT FCST BY 300600Z